KCVS/CVS METAR and TAF weather

Enter ICAO airport designator
Station Type Date Time Source
KCVS METAR 2020/01/19 02:58 UTC NOAA

KCVS 190258Z AUTO 09007KT 10SM CLR 00/M06 A3039 RMK AO2 SLP307 T00021062 53005 $


Station Type Date Time Source
KCVS Decoded METAR 2020/01/19 02:58 UTC NOAA

Cannon Air Force Base / Clovis, NM, United States (KCVS) 34-23N 103-19W
Jan 18, 2020 - 09:58 PM EST / 2020.01.19 0258 UTC
Wind: from the E (090 degrees) at 8 MPH (7 KT):0
Visibility: 10 mile(s):0
Sky conditions: clear
Temperature: 32.4 F (0.2 C)
Windchill: 24 F (-4 C):1
Dew Point: 20.8 F (-6.2 C)
Relative Humidity: 62%
Pressure (altimeter): 30.39 in. Hg (1029 hPa)
Pressure tendency: 0.01 inches (0.5 hPa) higher than three hours ago
ob: KCVS 190258Z AUTO 09007KT 10SM CLR 00/M06 A3039 RMK AO2 SLP307 T00021062 53005
cycle: 3

Station Type Date Time Source
KCVS TAF 2020/01/17 13:51 UTC NOAA

TAF TAF
AMD KCVS 171345Z 1713/1816 20003KT 0800 FG VV002 650022 650209 540609 QNH3010INS
BECMG 1714/1715 22010KT 3200 BR SCT003 BKN006 OVC018 620509 540609 QNH3008INS
BECMG 1716/1717 22012G18KT 6000 BR FEW003 SCT012 BKN020 620559 540609 QNH3007INS
BECMG 1717/1718 23015G25KT 9999 NSW SCT012 BKN025 620659 540609 QNH3006INS
BECMG 1719/1720 23018G30KT 9999 FEW045 FEW250 540002 520609 QNH2997INS
BECMG 1800/1801 25010G15KT 9999 SKC 530556 QNH2998INS
BECMG 1803/1804 31009KT 9999 SKC 520556 QNH3008INS
BECMG 1808/1809 VRB06KT 9999 SKC QNH3020INS TX11/1722Z TNM04/1810Z LAST NO
AMDS AFT 1714 NEXT 2107

Example: see airport list